createdAt,value
2019-06-01T00:00:37.978Z,0.00
2019-06-01T00:01:38.302Z,0.00
2019-06-01T00:02:38.593Z,0.00
2019-06-01T00:03:38.204Z,0.00
2019-06-01T00:04:38.655Z,0.00
2019-06-01T00:05:38.428Z,0.00
2019-06-01T00:06:38.638Z,0.00
2019-06-01T00:07:38.714Z,0.00
2019-06-01T00:08:40.188Z,0.00
2019-06-01T00:09:38.913Z,0.00
2019-06-01T00:10:38.888Z,0.00
2019-06-01T00:11:39.096Z,0.00
2019-06-01T00:12:37.748Z,0.00
2019-06-01T00:13:37.697Z,0.00
2019-06-01T00:14:37.686Z,0.00
2019-06-01T00:15:37.678Z,0.00
2019-06-01T00:16:37.679Z,0.00
2019-06-01T00:17:37.650Z,0.00
2019-06-01T00:18:37.650Z,0.00
2019-06-01T00:19:37.628Z,0.00
2019-06-01T00:20:37.616Z,0.00
2019-06-01T00:21:37.616Z,0.00
2019-06-01T00:22:37.593Z,0.00
2019-06-01T00:23:37.583Z,0.00
2019-06-01T00:24:37.572Z,0.00
2019-06-01T00:25:37.592Z,0.00
2019-06-01T00:26:37.574Z,0.00
2019-06-01T00:27:37.540Z,0.00
2019-06-01T00:28:37.533Z,0.00
2019-06-01T00:29:37.560Z,0.00
2019-06-01T00:30:37.522Z,0.00
2019-06-01T00:31:37.490Z,0.00
2019-06-01T00:32:37.481Z,0.00
2019-06-01T00:33:37.546Z,0.00
2019-06-01T00:34:37.496Z,0.00
2019-06-01T00:35:37.454Z,0.00
2019-06-01T00:36:37.461Z,0.00
2019-06-01T00:37:37.424Z,0.00
2019-06-01T00:38:37.436Z,0.00
2019-06-01T00:39:37.401Z,0.00
2019-06-01T00:40:37.391Z,0.00
2019-06-01T00:41:37.410Z,0.00
2019-06-01T00:42:37.369Z,0.00
2019-06-01T00:43:37.364Z,0.00
2019-06-01T00:44:37.363Z,0.00
2019-06-01T00:45:37.336Z,0.00
2019-06-01T00:46:37.336Z,0.00
2019-06-01T00:47:37.310Z,0.00
2019-06-01T00:48:37.296Z,0.00
2019-06-01T00:49:37.299Z,0.00
2019-06-01T00:50:37.304Z,0.00
2019-06-01T00:51:37.266Z,0.00
2019-06-01T00:52:37.270Z,0.00
2019-06-01T00:53:37.246Z,0.00
2019-06-01T00:54:37.237Z,0.00
2019-06-01T00:55:37.239Z,0.00
2019-06-01T00:56:37.212Z,0.00
2019-06-01T00:57:37.204Z,0.00
2019-06-01T00:58:37.216Z,0.00
2019-06-01T00:59:37.179Z,0.00
2019-06-01T01:00:43.552Z,0.00
2019-06-01T01:01:38.154Z,0.00
2019-06-01T01:02:37.144Z,0.00
2019-06-01T01:03:37.126Z,0.00
2019-06-01T01:04:37.125Z,0.00
2019-06-01T01:05:37.110Z,0.00
2019-06-01T01:06:37.101Z,0.00
2019-06-01T01:07:38.254Z,0.00
2019-06-01T01:08:37.075Z,0.00
2019-06-01T01:09:37.063Z,0.00
2019-06-01T01:10:37.048Z,0.00
2019-06-01T01:11:37.039Z,0.00
2019-06-01T01:12:37.037Z,0.00
2019-06-01T01:13:37.016Z,0.00
2019-06-01T01:14:37.012Z,0.00
2019-06-01T01:15:37.729Z,0.00
2019-06-01T01:16:36.984Z,0.00
2019-06-01T01:17:36.979Z,0.00
2019-06-01T01:18:36.975Z,0.00
2019-06-01T01:19:36.949Z,0.00
2019-06-01T01:20:36.937Z,0.00
2019-06-01T01:21:36.922Z,0.00
2019-06-01T01:22:36.922Z,0.00
2019-06-01T01:23:36.912Z,0.00
2019-06-01T01:24:36.896Z,0.00
2019-06-01T01:25:36.890Z,0.00
2019-06-01T01:26:36.874Z,0.00
2019-06-01T01:27:36.855Z,0.00
2019-06-01T01:28:36.858Z,0.00
2019-06-01T01:29:36.834Z,0.00
2019-06-01T01:30:36.837Z,0.00
2019-06-01T01:31:36.812Z,0.00
2019-06-01T01:32:36.820Z,0.00
2019-06-01T01:33:36.838Z,0.00
2019-06-01T01:34:36.860Z,0.00
2019-06-01T01:35:36.770Z,0.00
2019-06-01T01:36:36.804Z,0.00
2019-06-01T01:37:36.746Z,0.00
2019-06-01T01:38:36.732Z,0.00
2019-06-01T01:39:36.724Z,0.00
2019-06-01T01:40:36.706Z,0.00
2019-06-01T01:41:36.696Z,0.00
2019-06-01T01:42:36.684Z,0.00
2019-06-01T01:43:36.700Z,0.00
2019-06-01T01:44:36.665Z,0.00
2019-06-01T01:45:36.676Z,0.00
2019-06-01T01:46:36.642Z,0.00
2019-06-01T01:47:36.631Z,0.00
2019-06-01T01:48:36.630Z,0.00
2019-06-01T01:49:36.608Z,0.00
2019-06-01T01:50:36.602Z,0.00
2019-06-01T01:51:36.606Z,0.00
2019-06-01T01:52:36.571Z,0.00
2019-06-01T01:53:36.582Z,0.00
2019-06-01T01:54:36.566Z,0.00
2019-06-01T01:55:36.540Z,0.00
2019-06-01T01:56:36.547Z,0.00
2019-06-01T01:57:36.514Z,0.00
2019-06-01T01:58:36.510Z,0.00
2019-06-01T01:59:36.504Z,4.00
2019-06-01T02:00:36.479Z,4.00
2019-06-01T02:01:36.476Z,4.00
2019-06-01T02:02:36.482Z,0.00
2019-06-01T02:03:36.446Z,0.00
2019-06-01T02:04:36.434Z,4.00
2019-06-01T02:05:36.439Z,4.00
2019-06-01T02:06:36.414Z,4.00
2019-06-01T02:07:36.420Z,4.00
2019-06-01T02:08:36.393Z,4.00
2019-06-01T02:09:36.380Z,4.00
2019-06-01T02:10:36.378Z,4.00
2019-06-01T02:11:36.355Z,4.00
2019-06-01T02:12:36.357Z,4.00
2019-06-01T02:13:36.342Z,8.00
2019-06-01T02:14:36.404Z,4.00
2019-06-01T02:15:36.313Z,4.00
2019-06-01T02:16:36.313Z,12.00
2019-06-01T02:17:36.290Z,8.00
2019-06-01T02:18:36.281Z,8.00
2019-06-01T02:19:36.659Z,12.00
2019-06-01T02:20:36.259Z,12.00
2019-06-01T02:21:36.238Z,12.00
2019-06-01T02:22:36.228Z,16.00
2019-06-01T02:23:36.220Z,20.00
2019-06-01T02:24:36.229Z,20.00
2019-06-01T02:25:36.220Z,24.00
2019-06-01T02:26:36.357Z,24.00
2019-06-01T02:27:36.173Z,28.00
2019-06-01T02:28:36.168Z,32.00
2019-06-01T02:29:36.155Z,36.00
2019-06-01T02:30:36.137Z,40.00
2019-06-01T02:31:41.422Z,48.00
2019-06-01T02:32:37.135Z,52.00
2019-06-01T02:33:36.103Z,60.00
2019-06-01T02:34:36.132Z,64.00
2019-06-01T02:35:36.103Z,76.00
2019-06-01T02:36:36.071Z,84.00
2019-06-01T02:37:36.059Z,96.00
2019-06-01T02:38:36.087Z,104.00
2019-06-01T02:39:36.054Z,112.00
2019-06-01T02:40:36.054Z,124.00
2019-06-01T02:41:36.014Z,136.00
2019-06-01T02:42:36.003Z,144.00
2019-06-01T02:43:36.006Z,156.00
2019-06-01T02:44:36.010Z,168.00
2019-06-01T02:45:35.973Z,176.00
2019-06-01T02:46:36.328Z,192.00
2019-06-01T02:47:35.948Z,204.00
2019-06-01T02:48:35.937Z,220.00
2019-06-01T02:49:35.923Z,232.00
2019-06-01T02:50:35.969Z,244.00
2019-06-01T02:51:35.901Z,260.00
2019-06-01T02:52:35.908Z,276.00
2019-06-01T02:53:35.873Z,292.00
2019-06-01T02:54:35.870Z,312.00
2019-06-01T02:55:35.892Z,332.00
2019-06-01T02:56:35.864Z,352.00
2019-06-01T02:57:35.846Z,372.00
2019-06-01T02:58:35.819Z,396.00
2019-06-01T02:59:35.806Z,424.00
2019-06-01T03:00:35.828Z,448.00
2019-06-01T03:01:35.803Z,476.00
2019-06-01T03:02:35.783Z,512.00
2019-06-01T03:03:35.777Z,544.00
2019-06-01T03:04:35.752Z,576.00
2019-06-01T03:05:35.748Z,612.00
2019-06-01T03:06:35.752Z,648.00
2019-06-01T03:07:35.742Z,684.00
2019-06-01T03:08:35.712Z,720.00
2019-06-01T03:09:35.697Z,760.00
2019-06-01T03:10:35.682Z,804.00
2019-06-01T03:11:35.675Z,844.00
2019-06-01T03:12:35.664Z,896.00
2019-06-01T03:13:35.658Z,948.00
2019-06-01T03:14:35.653Z,1008.00
2019-06-01T03:15:35.627Z,1076.00
2019-06-01T03:16:35.614Z,1136.00
2019-06-01T03:17:35.612Z,1216.00
2019-06-01T03:18:35.627Z,1304.00
2019-06-01T03:19:35.590Z,1368.00
2019-06-01T03:20:35.566Z,1408.00
2019-06-01T03:21:35.562Z,1496.00
2019-06-01T03:22:35.546Z,1568.00
2019-06-01T03:23:35.536Z,1624.00
2019-06-01T03:24:35.528Z,1692.00
2019-06-01T03:25:35.517Z,1760.00
2019-06-01T03:26:35.500Z,1876.00
2019-06-01T03:27:35.492Z,2128.00
2019-06-01T03:28:35.477Z,2180.00
2019-06-01T03:29:35.561Z,2160.00
2019-06-01T03:30:35.461Z,2456.00
2019-06-01T03:31:35.443Z,2504.00
2019-06-01T03:32:37.391Z,2368.00
2019-06-01T03:33:35.420Z,2464.00
2019-06-01T03:34:36.327Z,2520.00
2019-06-01T03:35:35.401Z,2624.00
2019-06-01T03:36:35.406Z,2912.00
2019-06-01T03:37:35.374Z,3096.00
2019-06-01T03:38:35.362Z,3096.00
2019-06-01T03:39:35.352Z,3596.00
2019-06-01T03:40:35.339Z,3904.00
2019-06-01T03:41:35.335Z,3532.00
2019-06-01T03:42:35.355Z,3448.00
2019-06-01T03:43:35.308Z,3532.00
2019-06-01T03:44:35.302Z,3744.00
2019-06-01T03:45:35.303Z,4320.00
2019-06-01T03:46:35.282Z,4572.00
2019-06-01T03:47:35.299Z,4404.00
2019-06-01T03:48:35.249Z,4600.00
2019-06-01T03:49:35.240Z,5324.00
2019-06-01T03:50:35.229Z,5472.00
2019-06-01T03:51:35.213Z,5188.00
2019-06-01T03:52:35.215Z,5836.00
2019-06-01T03:53:35.212Z,7188.00
2019-06-01T03:54:35.182Z,8396.00
2019-06-01T03:55:35.176Z,8980.00
2019-06-01T03:56:35.163Z,9016.00
2019-06-01T03:57:35.155Z,7732.00
2019-06-01T03:58:35.140Z,6400.00
2019-06-01T03:59:35.129Z,7028.00
2019-06-01T04:00:35.113Z,10896.00
2019-06-01T04:01:35.117Z,13056.00
2019-06-01T04:02:35.093Z,10328.00
2019-06-01T04:03:35.094Z,7252.00
2019-06-01T04:04:35.073Z,6996.00
2019-06-01T04:05:35.056Z,7356.00
2019-06-01T04:06:35.121Z,9628.00
2019-06-01T04:07:35.034Z,15168.00
2019-06-01T04:08:35.043Z,16128.00
2019-06-01T04:09:35.027Z,12608.00
2019-06-01T04:10:35.032Z,10428.00
2019-06-01T04:11:34.997Z,15040.00
2019-06-01T04:12:34.984Z,14592.00
2019-06-01T04:13:34.998Z,17312.00
2019-06-01T04:14:34.954Z,15360.00
2019-06-01T04:15:34.963Z,10336.00
2019-06-01T04:16:34.941Z,14592.00
2019-06-01T04:17:34.924Z,20512.00
2019-06-01T04:18:34.911Z,14160.00
2019-06-01T04:19:34.904Z,9636.00
2019-06-01T04:20:34.921Z,9092.00
2019-06-01T04:21:34.903Z,9528.00
2019-06-01T04:22:34.869Z,12060.00
2019-06-01T04:23:36.441Z,17408.00
2019-06-01T04:24:34.857Z,17152.00
2019-06-01T04:25:34.854Z,14400.00
2019-06-01T04:26:34.837Z,22656.00
2019-06-01T04:27:34.828Z,24608.00
2019-06-01T04:28:34.800Z,15584.00
2019-06-01T04:29:34.815Z,22304.00
2019-06-01T04:30:34.798Z,34720.00
2019-06-01T04:31:34.773Z,24512.00
2019-06-01T04:32:48.836Z,18880.00
2019-06-01T04:33:35.746Z,27456.00
2019-06-01T04:34:35.784Z,22496.00
2019-06-01T04:35:34.734Z,17088.00
2019-06-01T04:36:34.721Z,25920.00
2019-06-01T04:37:34.713Z,23712.00
2019-06-01T04:38:34.700Z,20160.00
2019-06-01T04:39:34.683Z,19200.00
2019-06-01T04:40:34.665Z,13600.00
2019-06-01T04:41:34.675Z,13660.00
2019-06-01T04:42:34.651Z,24928.00
2019-06-01T04:43:34.643Z,37120.00
2019-06-01T04:44:34.620Z,28224.00
2019-06-01T04:45:34.611Z,33184.00
2019-06-01T04:46:34.597Z,41728.00
2019-06-01T04:47:34.589Z,33184.00
2019-06-01T04:48:34.577Z,33344.00
2019-06-01T04:49:34.587Z,41696.00
2019-06-01T04:50:34.550Z,36224.00
2019-06-01T04:51:34.541Z,33152.00
2019-06-01T04:52:34.533Z,39712.00
2019-06-01T04:53:34.537Z,28800.00
2019-06-01T04:54:34.524Z,32288.00
2019-06-01T04:55:34.537Z,38464.00
2019-06-01T04:56:34.489Z,36352.00
2019-06-01T04:57:34.479Z,32736.00
2019-06-01T04:58:34.463Z,39200.00
2019-06-01T04:59:37.706Z,41408.00
2019-06-01T05:00:34.466Z,36576.00
2019-06-01T05:01:34.435Z,37344.00
2019-06-01T05:02:34.421Z,40128.00
2019-06-01T05:03:34.429Z,38592.00
2019-06-01T05:04:34.398Z,38976.00
2019-06-01T05:05:34.395Z,37184.00
2019-06-01T05:06:34.400Z,29152.00
2019-06-01T05:07:34.366Z,21280.00
2019-06-01T05:08:34.355Z,17920.00
2019-06-01T05:09:34.341Z,18080.00
2019-06-01T05:10:34.346Z,18656.00
2019-06-01T05:11:34.329Z,20896.00
2019-06-01T05:12:34.327Z,25056.00
2019-06-01T05:13:34.303Z,33600.00
2019-06-01T05:14:34.292Z,39264.00
2019-06-01T05:15:34.291Z,33312.00
2019-06-01T05:16:34.270Z,32896.00
2019-06-01T05:17:34.274Z,32832.00
2019-06-01T05:18:34.277Z,30368.00
2019-06-01T05:19:34.229Z,31328.00
2019-06-01T05:20:34.224Z,24864.00
2019-06-01T05:21:34.213Z,17056.00
2019-06-01T05:22:34.202Z,15256.00
2019-06-01T05:23:34.225Z,13796.00
2019-06-01T05:24:34.179Z,13020.00
2019-06-01T05:25:34.167Z,12820.00
2019-06-01T05:26:34.177Z,12000.00
2019-06-01T05:27:34.149Z,10872.00
2019-06-01T05:28:34.139Z,9808.00
2019-06-01T05:29:34.121Z,8724.00
2019-06-01T05:30:34.107Z,8344.00
2019-06-01T05:31:34.097Z,8224.00
2019-06-01T05:32:34.171Z,8040.00
2019-06-01T05:33:37.580Z,7708.00
2019-06-01T05:34:34.225Z,7512.00
2019-06-01T05:35:34.084Z,7216.00
2019-06-01T05:36:34.043Z,7056.00
2019-06-01T05:37:34.039Z,6996.00
2019-06-01T05:38:34.026Z,7088.00
2019-06-01T05:39:34.027Z,7060.00
2019-06-01T05:40:34.013Z,7624.00
2019-06-01T05:41:33.992Z,7400.00
2019-06-01T05:42:33.982Z,8040.00
2019-06-01T05:43:33.967Z,7540.00
2019-06-01T05:44:33.957Z,7744.00
2019-06-01T05:45:33.955Z,7572.00
2019-06-01T05:46:33.934Z,6952.00
2019-06-01T05:47:33.925Z,6608.00
2019-06-01T05:48:33.939Z,6856.00
2019-06-01T05:49:33.898Z,7104.00
2019-06-01T05:50:33.895Z,7448.00
2019-06-01T05:51:33.885Z,7548.00
2019-06-01T05:52:33.864Z,7592.00
2019-06-01T05:53:33.871Z,7876.00
2019-06-01T05:54:33.847Z,7968.00
2019-06-01T05:55:33.833Z,8228.00
2019-06-01T05:56:33.844Z,8316.00
2019-06-01T05:57:33.832Z,8136.00
2019-06-01T05:58:33.801Z,8252.00
2019-06-01T05:59:33.786Z,8000.00
2019-06-01T06:00:33.790Z,8000.00
2019-06-01T06:01:33.771Z,8000.00
2019-06-01T06:02:33.819Z,7340.00
2019-06-01T06:03:40.320Z,7100.00
2019-06-01T06:04:34.743Z,7280.00
2019-06-01T06:05:33.725Z,8408.00
2019-06-01T06:06:33.707Z,9372.00
2019-06-01T06:07:33.699Z,10056.00
2019-06-01T06:08:33.709Z,10280.00
2019-06-01T06:09:33.857Z,10424.00
2019-06-01T06:10:33.664Z,9492.00
2019-06-01T06:11:33.694Z,8284.00
2019-06-01T06:12:33.639Z,7036.00
2019-06-01T06:13:33.642Z,6256.00
2019-06-01T06:14:33.631Z,6196.00
2019-06-01T06:15:33.602Z,6512.00
2019-06-01T06:16:33.609Z,6452.00
2019-06-01T06:17:33.582Z,6548.00
2019-06-01T06:18:33.579Z,6956.00
2019-06-01T06:19:33.565Z,7028.00
2019-06-01T06:20:33.552Z,7656.00
2019-06-01T06:21:33.531Z,8744.00
2019-06-01T06:22:33.546Z,8776.00
2019-06-01T06:23:33.513Z,8380.00
2019-06-01T06:24:33.520Z,7336.00
2019-06-01T06:25:35.691Z,7184.00
2019-06-01T06:26:33.479Z,7180.00
2019-06-01T06:27:33.476Z,7320.00
2019-06-01T06:28:33.454Z,7672.00
2019-06-01T06:29:33.449Z,8304.00
2019-06-01T06:30:33.464Z,8528.00
2019-06-01T06:31:33.421Z,9308.00
2019-06-01T06:32:33.411Z,9984.00
2019-06-01T06:33:36.730Z,11324.00
2019-06-01T06:34:33.395Z,12972.00
2019-06-01T06:35:33.383Z,13120.00
2019-06-01T06:36:33.391Z,13508.00
2019-06-01T06:37:33.388Z,13340.00
2019-06-01T06:38:33.360Z,12876.00
2019-06-01T06:39:33.335Z,12356.00
2019-06-01T06:40:33.332Z,12764.00
2019-06-01T06:41:33.320Z,12344.00
2019-06-01T06:42:33.302Z,11416.00
2019-06-01T06:43:33.520Z,10636.00
2019-06-01T06:44:33.288Z,11244.00
2019-06-01T06:45:33.259Z,11528.00
2019-06-01T06:46:33.256Z,11688.00
2019-06-01T06:47:33.271Z,12024.00
2019-06-01T06:48:33.229Z,12256.00
2019-06-01T06:49:33.212Z,12508.00
2019-06-01T06:50:33.321Z,12744.00
2019-06-01T06:51:33.212Z,12208.00
2019-06-01T06:52:33.335Z,12264.00
2019-06-01T06:53:35.318Z,11704.00
2019-06-01T06:54:33.166Z,11624.00
2019-06-01T06:55:33.198Z,11756.00
2019-06-01T06:56:33.138Z,11552.00
2019-06-01T06:57:33.134Z,11848.00
2019-06-01T06:58:33.154Z,11928.00
2019-06-01T06:59:33.099Z,12596.00
2019-06-01T07:00:33.099Z,13628.00
2019-06-01T07:01:33.092Z,14408.00
2019-06-01T07:02:33.071Z,14640.00
2019-06-01T07:03:33.061Z,14172.00
2019-06-01T07:04:33.083Z,14400.00
2019-06-01T07:05:33.035Z,13968.00
2019-06-01T07:06:33.027Z,13988.00
2019-06-01T07:07:33.022Z,13520.00
2019-06-01T07:08:33.005Z,12928.00
2019-06-01T07:09:33.022Z,12168.00
2019-06-01T07:10:32.975Z,11876.00
2019-06-01T07:11:32.973Z,12004.00
2019-06-01T07:12:33.003Z,11984.00
2019-06-01T07:13:32.940Z,11988.00
2019-06-01T07:14:32.944Z,11580.00
2019-06-01T07:15:32.920Z,11436.00
2019-06-01T07:16:32.913Z,12340.00
2019-06-01T07:17:32.907Z,12896.00
2019-06-01T07:18:32.881Z,12548.00
2019-06-01T07:19:32.889Z,12240.00
2019-06-01T07:20:32.908Z,11760.00
2019-06-01T07:21:32.859Z,11164.00
2019-06-01T07:22:32.849Z,10856.00
2019-06-01T07:23:32.858Z,10556.00
2019-06-01T07:24:32.839Z,10604.00
2019-06-01T07:25:33.062Z,10688.00
2019-06-01T07:26:32.818Z,10876.00
2019-06-01T07:27:32.851Z,11080.00
2019-06-01T07:28:32.786Z,11024.00
2019-06-01T07:29:32.762Z,10944.00
2019-06-01T07:30:49.444Z,10896.00
2019-06-01T07:31:33.744Z,12200.00
2019-06-01T07:32:32.916Z,14044.00
2019-06-01T07:33:32.855Z,15432.00
2019-06-01T07:34:40.204Z,15020.00
2019-06-01T07:35:33.734Z,12832.00
2019-06-01T07:36:32.835Z,11684.00
2019-06-01T07:37:32.801Z,10948.00
2019-06-01T07:38:33.225Z,11364.00
2019-06-01T07:39:33.477Z,10984.00
2019-06-01T07:40:33.040Z,10808.00
2019-06-01T07:41:33.091Z,11220.00
2019-06-01T07:42:33.055Z,10508.00
2019-06-01T07:43:33.268Z,11036.00
2019-06-01T07:44:33.260Z,10700.00
2019-06-01T07:45:34.888Z,10868.00
2019-06-01T07:46:33.220Z,9532.00
2019-06-01T07:47:34.020Z,9652.00
2019-06-01T07:48:33.439Z,9940.00
2019-06-01T07:49:32.549Z,9604.00
2019-06-01T07:50:32.526Z,9652.00
2019-06-01T07:51:32.520Z,9728.00
2019-06-01T07:52:32.525Z,9936.00
2019-06-01T07:53:32.498Z,10124.00
2019-06-01T07:54:32.734Z,10108.00
2019-06-01T07:55:32.472Z,10196.00
2019-06-01T07:56:32.859Z,10328.00
2019-06-01T07:57:32.477Z,10392.00
2019-06-01T07:58:32.969Z,10624.00
2019-06-01T07:59:32.661Z,10632.00
2019-06-01T08:00:33.213Z,10712.00
2019-06-01T08:01:32.903Z,11784.00
2019-06-01T08:02:33.125Z,11816.00
2019-06-01T08:03:34.789Z,13028.00
2019-06-01T08:04:50.545Z,13344.00
2019-06-01T08:05:33.373Z,13656.00
2019-06-01T08:06:32.833Z,13536.00
2019-06-01T08:07:32.354Z,12944.00
2019-06-01T08:08:32.344Z,13076.00
2019-06-01T08:09:32.312Z,12764.00
2019-06-01T08:10:32.316Z,12924.00
2019-06-01T08:11:34.926Z,12924.00
2019-06-01T08:12:32.298Z,12508.00
2019-06-01T08:13:35.371Z,12336.00
2019-06-01T08:14:32.891Z,13344.00
2019-06-01T08:15:32.251Z,13864.00
2019-06-01T08:16:32.263Z,12948.00
2019-06-01T08:17:32.333Z,12980.00
2019-06-01T08:18:32.340Z,13284.00
2019-06-01T08:19:32.221Z,12616.00
2019-06-01T08:20:32.330Z,12148.00
2019-06-01T08:21:32.455Z,11824.00
2019-06-01T08:22:32.251Z,11744.00
2019-06-01T08:23:32.532Z,11676.00
2019-06-01T08:24:32.473Z,11520.00
2019-06-01T08:25:32.814Z,11340.00
2019-06-01T08:26:32.653Z,11244.00
2019-06-01T08:27:32.669Z,11072.00
2019-06-01T08:28:32.745Z,10952.00
2019-06-01T08:29:32.824Z,11000.00
2019-06-01T08:30:32.711Z,11088.00
2019-06-01T08:31:33.529Z,11080.00
2019-06-01T08:32:32.969Z,11084.00
2019-06-01T08:33:34.631Z,11040.00
2019-06-01T08:34:33.139Z,11032.00
2019-06-01T08:35:33.004Z,11092.00
2019-06-01T08:36:33.754Z,11252.00
2019-06-01T08:37:32.042Z,11376.00
2019-06-01T08:38:32.058Z,11624.00
2019-06-01T08:39:31.978Z,11372.00
2019-06-01T08:40:32.019Z,11216.00
2019-06-01T08:41:31.964Z,11196.00
2019-06-01T08:42:31.942Z,10904.00
2019-06-01T08:43:31.948Z,10744.00
2019-06-01T08:44:31.958Z,10736.00
2019-06-01T08:45:36.091Z,10344.00
2019-06-01T08:46:33.949Z,9684.00
2019-06-01T08:47:32.060Z,9512.00
2019-06-01T08:48:32.037Z,9692.00
2019-06-01T08:49:32.515Z,9688.00
2019-06-01T08:50:32.064Z,9460.00
2019-06-01T08:51:32.135Z,9672.00
2019-06-01T08:52:32.208Z,9980.00
2019-06-01T08:53:32.182Z,9820.00
2019-06-01T08:54:32.267Z,9436.00
2019-06-01T08:55:32.306Z,9212.00
2019-06-01T08:56:32.310Z,9072.00
2019-06-01T08:57:32.458Z,8772.00
2019-06-01T08:58:32.502Z,8716.00
2019-06-01T08:59:32.550Z,8880.00
2019-06-01T09:00:32.623Z,8948.00
2019-06-01T09:01:32.766Z,8924.00
2019-06-01T09:02:32.791Z,8924.00
2019-06-01T09:03:31.960Z,8600.00
2019-06-01T09:04:32.735Z,8996.00
2019-06-01T09:05:31.698Z,9108.00
2019-06-01T09:06:32.736Z,9036.00
2019-06-01T09:07:33.101Z,9044.00
2019-06-01T09:08:33.140Z,9048.00
2019-06-01T09:09:33.028Z,8992.00
2019-06-01T09:10:32.067Z,8840.00
2019-06-01T09:11:31.620Z,8680.00
2019-06-01T09:12:31.631Z,8496.00
2019-06-01T09:13:31.641Z,8612.00
2019-06-01T09:14:31.600Z,8660.00
2019-06-01T09:15:31.584Z,8880.00
2019-06-01T09:16:31.672Z,8728.00
2019-06-01T09:17:31.668Z,8676.00
2019-06-01T09:18:31.611Z,8468.00
2019-06-01T09:19:31.673Z,8432.00
2019-06-01T09:20:35.338Z,8776.00
2019-06-01T09:21:33.574Z,9184.00
2019-06-01T09:22:31.651Z,9336.00
2019-06-01T09:23:31.701Z,9564.00
2019-06-01T09:24:31.955Z,9704.00
2019-06-01T09:25:31.803Z,9892.00
2019-06-01T09:26:32.005Z,9924.00
2019-06-01T09:27:31.981Z,9432.00
2019-06-01T09:28:32.034Z,9972.00
2019-06-01T09:29:32.136Z,10144.00
2019-06-01T09:30:32.109Z,10100.00
2019-06-01T09:31:32.385Z,10100.00
2019-06-01T09:32:32.208Z,10260.00
2019-06-01T09:33:32.205Z,9760.00
2019-06-01T09:34:32.448Z,9732.00
2019-06-01T09:35:47.734Z,10856.00
2019-06-01T09:36:32.539Z,10800.00
2019-06-01T09:37:32.482Z,10408.00
2019-06-01T09:38:31.648Z,10628.00
2019-06-01T09:39:31.323Z,9488.00
2019-06-01T09:40:32.190Z,9852.00
2019-06-01T09:41:32.493Z,9648.00
2019-06-01T09:42:31.322Z,9584.00
2019-06-01T09:43:31.285Z,10132.00
2019-06-01T09:44:31.983Z,10144.00
2019-06-01T09:45:32.884Z,10664.00
2019-06-01T09:46:32.111Z,10512.00
2019-06-01T09:47:31.218Z,10152.00
2019-06-01T09:48:31.470Z,9772.00
2019-06-01T09:49:32.634Z,9616.00
2019-06-01T09:50:31.393Z,10024.00
2019-06-01T09:51:31.447Z,10700.00
2019-06-01T09:52:31.394Z,10556.00
2019-06-01T09:53:32.602Z,10992.00
2019-06-01T09:54:32.631Z,10252.00
2019-06-01T09:55:32.601Z,9300.00
2019-06-01T09:56:33.242Z,9228.00
2019-06-01T09:57:31.955Z,9392.00
2019-06-01T09:58:32.206Z,8744.00
2019-06-01T09:59:31.934Z,8808.00
2019-06-01T10:00:32.281Z,9984.00
2019-06-01T10:01:32.297Z,10208.00
2019-06-01T10:02:32.077Z,9772.00
2019-06-01T10:03:32.473Z,9912.00
2019-06-01T10:04:32.214Z,10400.00
2019-06-01T10:05:32.307Z,10876.00
2019-06-01T10:06:30.998Z,10892.00
2019-06-01T10:07:31.125Z,11456.00
2019-06-01T10:08:32.547Z,13040.00
2019-06-01T10:09:31.535Z,14032.00
2019-06-01T10:10:31.885Z,13580.00
2019-06-01T10:11:32.429Z,12704.00
2019-06-01T10:12:31.872Z,10944.00
2019-06-01T10:13:32.956Z,10408.00
2019-06-01T10:14:31.902Z,9496.00
2019-06-01T10:15:32.397Z,8976.00
2019-06-01T10:16:32.109Z,9504.00
2019-06-01T10:17:33.364Z,9164.00
2019-06-01T10:18:30.975Z,8168.00
2019-06-01T10:19:30.870Z,8436.00
2019-06-01T10:20:31.025Z,8060.00
2019-06-01T10:21:32.041Z,9880.00
2019-06-01T10:22:30.995Z,10304.00
2019-06-01T10:23:32.218Z,10848.00
2019-06-01T10:24:31.114Z,10256.00
2019-06-01T10:25:32.275Z,10340.00
2019-06-01T10:26:31.348Z,11416.00
2019-06-01T10:27:30.869Z,12716.00
2019-06-01T10:28:31.522Z,12004.00
2019-06-01T10:29:30.751Z,12312.00
2019-06-01T10:30:31.674Z,11964.00
2019-06-01T10:31:30.752Z,10576.00
2019-06-01T10:32:32.549Z,10544.00
2019-06-01T10:33:30.747Z,9916.00
2019-06-01T10:34:31.509Z,9140.00
2019-06-01T10:35:30.788Z,8920.00
2019-06-01T10:36:31.803Z,8876.00
2019-06-01T10:37:31.371Z,8416.00
2019-06-01T10:38:31.103Z,7904.00
2019-06-01T10:39:31.214Z,8620.00
2019-06-01T10:40:31.216Z,9908.00
2019-06-01T10:41:31.251Z,10428.00
2019-06-01T10:42:32.723Z,10740.00
2019-06-01T10:43:31.439Z,10756.00
2019-06-01T10:44:31.568Z,9548.00
2019-06-01T10:45:31.754Z,8100.00
2019-06-01T10:46:31.821Z,8092.00
2019-06-01T10:47:31.693Z,9096.00
2019-06-01T10:48:32.666Z,8780.00
2019-06-01T10:49:31.780Z,8944.00
2019-06-01T10:50:32.817Z,9136.00
2019-06-01T10:51:31.933Z,9096.00
2019-06-01T10:52:31.901Z,8780.00
2019-06-01T10:53:31.770Z,8212.00
2019-06-01T10:54:30.462Z,8396.00
2019-06-01T10:55:30.556Z,7940.00
2019-06-01T10:56:30.454Z,8336.00
2019-06-01T10:57:30.439Z,8848.00
2019-06-01T10:58:30.434Z,8280.00
2019-06-01T10:59:30.424Z,7776.00
2019-06-01T11:00:38.673Z,7824.00
2019-06-01T11:01:33.796Z,7304.00
2019-06-01T11:02:30.392Z,6356.00
2019-06-01T11:03:30.420Z,7260.00
2019-06-01T11:04:30.376Z,6776.00
2019-06-01T11:05:30.378Z,6972.00
2019-06-01T11:06:39.974Z,5700.00
2019-06-01T11:07:32.682Z,6280.00
2019-06-01T11:08:30.325Z,6908.00
2019-06-01T11:09:30.305Z,7308.00
2019-06-01T11:10:30.293Z,7764.00
2019-06-01T11:11:30.276Z,8136.00
2019-06-01T11:12:30.452Z,8152.00
2019-06-01T11:13:30.261Z,8012.00
2019-06-01T11:14:30.290Z,7804.00
2019-06-01T11:15:30.280Z,8172.00
2019-06-01T11:16:30.236Z,9352.00
2019-06-01T11:17:30.210Z,9468.00
2019-06-01T11:18:30.235Z,9660.00
2019-06-01T11:19:30.198Z,9096.00
2019-06-01T11:20:30.176Z,7924.00
2019-06-01T11:21:30.208Z,7628.00
2019-06-01T11:22:30.171Z,8008.00
2019-06-01T11:23:30.157Z,8696.00
2019-06-01T11:24:30.143Z,9024.00
2019-06-01T11:25:30.135Z,8460.00
2019-06-01T11:26:30.124Z,8308.00
2019-06-01T11:27:30.111Z,7368.00
2019-06-01T11:28:30.153Z,7808.00
2019-06-01T11:29:30.080Z,8004.00
2019-06-01T11:30:30.072Z,7868.00
2019-06-01T11:31:30.059Z,7944.00
2019-06-01T11:32:30.051Z,7996.00
2019-06-01T11:33:30.044Z,8388.00
2019-06-01T11:34:30.025Z,7272.00
2019-06-01T11:35:30.014Z,7908.00
2019-06-01T11:36:30.017Z,7940.00
2019-06-01T11:37:29.999Z,7728.00
2019-06-01T11:38:29.984Z,7280.00
2019-06-01T11:39:29.987Z,7144.00
2019-06-01T11:40:29.953Z,6832.00
2019-06-01T11:41:29.947Z,7116.00
2019-06-01T11:42:29.937Z,6836.00
2019-06-01T11:43:29.932Z,6568.00
2019-06-01T11:44:29.927Z,6688.00
2019-06-01T11:45:29.901Z,6456.00
2019-06-01T11:46:29.887Z,6464.00
2019-06-01T11:47:29.875Z,6824.00
2019-06-01T11:48:29.884Z,7056.00
2019-06-01T11:49:29.954Z,7552.00
2019-06-01T11:50:29.843Z,7120.00
2019-06-01T11:51:29.868Z,6372.00
2019-06-01T11:52:29.820Z,6416.00
2019-06-01T11:53:29.809Z,6288.00
2019-06-01T11:54:29.809Z,6084.00
2019-06-01T11:55:29.789Z,5944.00
2019-06-01T11:56:29.777Z,5200.00
2019-06-01T11:57:29.765Z,6068.00
2019-06-01T11:58:29.935Z,6240.00
2019-06-01T11:59:29.743Z,5832.00
2019-06-01T12:00:29.762Z,5356.00
2019-06-01T12:01:29.752Z,6300.00
2019-06-01T12:02:29.719Z,6548.00
2019-06-01T12:03:29.700Z,6788.00
2019-06-01T12:04:29.717Z,7220.00
2019-06-01T12:05:29.681Z,7332.00
2019-06-01T12:06:29.671Z,7616.00
2019-06-01T12:07:29.659Z,7036.00
2019-06-01T12:08:33.860Z,6788.00
2019-06-01T12:09:29.634Z,7484.00
2019-06-01T12:10:29.619Z,7488.00
2019-06-01T12:11:29.653Z,7268.00
2019-06-01T12:12:29.622Z,7872.00